sensor_id;sensor_type;location;lat;lon;timestamp;P1;durP1;ratioP1;P2;durP2;ratioP2
20988;SDS011;10653;47.052;15.410;2023-02-01T00:01:48;13.23;;;10.38;;
20988;SDS011;10653;47.052;15.410;2023-02-01T00:04:14;13.10;;;9.82;;
20988;SDS011;10653;47.052;15.410;2023-02-01T00:06:40;12.40;;;9.88;;
20988;SDS011;10653;47.052;15.410;2023-02-01T00:09:06;11.98;;;9.93;;
20988;SDS011;10653;47.052;15.410;2023-02-01T00:11:33;12.13;;;10.25;;
20988;SDS011;10653;47.052;15.410;2023-02-01T00:13:59;13.95;;;10.70;;
20988;SDS011;10653;47.052;15.410;2023-02-01T00:16:26;14.77;;;9.85;;
20988;SDS011;10653;47.052;15.410;2023-02-01T00:18:56;14.82;;;11.35;;
20988;SDS011;10653;47.052;15.410;2023-02-01T00:21:23;17.35;;;11.93;;
20988;SDS011;10653;47.052;15.410;2023-02-01T00:23:49;18.70;;;11.68;;
20988;SDS011;10653;47.052;15.410;2023-02-01T00:26:16;14.23;;;11.05;;
20988;SDS011;10653;47.052;15.410;2023-02-01T00:28:43;14.88;;;11.02;;
20988;SDS011;10653;47.052;15.410;2023-02-01T00:31:09;15.15;;;10.05;;
20988;SDS011;10653;47.052;15.410;2023-02-01T00:33:35;15.68;;;10.57;;
20988;SDS011;10653;47.052;15.410;2023-02-01T00:36:05;15.60;;;11.50;;
20988;SDS011;10653;47.052;15.410;2023-02-01T00:38:32;15.63;;;11.60;;
20988;SDS011;10653;47.052;15.410;2023-02-01T00:41:02;15.73;;;11.38;;
20988;SDS011;10653;47.052;15.410;2023-02-01T00:43:28;13.57;;;10.52;;
20988;SDS011;10653;47.052;15.410;2023-02-01T00:45:55;15.10;;;10.70;;
20988;SDS011;10653;47.052;15.410;2023-02-01T00:48:21;16.95;;;10.05;;
20988;SDS011;10653;47.052;15.410;2023-02-01T00:50:47;14.88;;;10.40;;
20988;SDS011;10653;47.052;15.410;2023-02-01T00:53:13;18.80;;;12.88;;
20988;SDS011;10653;47.052;15.410;2023-02-01T00:55:40;17.85;;;11.52;;
20988;SDS011;10653;47.052;15.410;2023-02-01T00:58:06;13.60;;;9.35;;
20988;SDS011;10653;47.052;15.410;2023-02-01T01:00:34;15.75;;;10.80;;
20988;SDS011;10653;47.052;15.410;2023-02-01T01:03:00;15.18;;;10.50;;
20988;SDS011;10653;47.052;15.410;2023-02-01T01:05:26;15.80;;;10.77;;
20988;SDS011;10653;47.052;15.410;2023-02-01T01:07:55;20.58;;;14.93;;
20988;SDS011;10653;47.052;15.410;2023-02-01T01:10:21;18.73;;;13.88;;
20988;SDS011;10653;47.052;15.410;2023-02-01T01:12:47;20.38;;;12.05;;
20988;SDS011;10653;47.052;15.410;2023-02-01T01:15:13;18.60;;;12.95;;
20988;SDS011;10653;47.052;15.410;2023-02-01T01:17:39;16.52;;;11.35;;
20988;SDS011;10653;47.052;15.410;2023-02-01T01:20:05;21.00;;;12.88;;
20988;SDS011;10653;47.052;15.410;2023-02-01T01:22:31;20.50;;;12.27;;
20988;SDS011;10653;47.052;15.410;2023-02-01T01:24:57;16.17;;;11.02;;
20988;SDS011;10653;47.052;15.410;2023-02-01T01:27:23;11.98;;;9.90;;
20988;SDS011;10653;47.052;15.410;2023-02-01T01:29:50;19.90;;;11.23;;
20988;SDS011;10653;47.052;15.410;2023-02-01T01:32:16;21.38;;;10.93;;
20988;SDS011;10653;47.052;15.410;2023-02-01T01:34:42;15.18;;;10.20;;
20988;SDS011;10653;47.052;15.410;2023-02-01T01:37:08;15.05;;;9.98;;
20988;SDS011;10653;47.052;15.410;2023-02-01T01:39:34;11.68;;;10.18;;
20988;SDS011;10653;47.052;15.410;2023-02-01T01:42:00;15.60;;;10.52;;
20988;SDS011;10653;47.052;15.410;2023-02-01T01:47:11;15.20;;;9.80;;
20988;SDS011;10653;47.052;15.410;2023-02-01T01:49:37;12.15;;;9.32;;
20988;SDS011;10653;47.052;15.410;2023-02-01T01:52:03;16.02;;;10.65;;
20988;SDS011;10653;47.052;15.410;2023-02-01T01:54:31;14.32;;;9.40;;
20988;SDS011;10653;47.052;15.410;2023-02-01T01:57:00;12.25;;;9.25;;
20988;SDS011;10653;47.052;15.410;2023-02-01T01:59:27;13.20;;;9.93;;
20988;SDS011;10653;47.052;15.410;2023-02-01T02:01:54;16.17;;;10.35;;
20988;SDS011;10653;47.052;15.410;2023-02-01T02:04:21;14.52;;;11.77;;
20988;SDS011;10653;47.052;15.410;2023-02-01T02:06:50;11.20;;;9.98;;
20988;SDS011;10653;47.052;15.410;2023-02-01T02:09:18;14.70;;;10.68;;
20988;SDS011;10653;47.052;15.410;2023-02-01T02:11:44;17.63;;;10.40;;
20988;SDS011;10653;47.052;15.410;2023-02-01T02:14:11;11.93;;;9.13;;
20988;SDS011;10653;47.052;15.410;2023-02-01T02:32:04;12.73;;;10.38;;
20988;SDS011;10653;47.052;15.410;2023-02-01T02:37:18;13.57;;;10.65;;
20988;SDS011;10653;47.052;15.410;2023-02-01T02:40:35;13.55;;;10.90;;
20988;SDS011;10653;47.052;15.410;2023-02-01T02:45:55;14.65;;;10.65;;
20988;SDS011;10653;47.052;15.410;2023-02-01T02:49:02;16.67;;;10.45;;
20988;SDS011;10653;47.052;15.410;2023-02-01T02:54:18;12.50;;;9.57;;
20988;SDS011;10653;47.052;15.410;2023-02-01T02:57:03;16.05;;;10.23;;
20988;SDS011;10653;47.052;15.410;2023-02-01T02:59:50;17.85;;;12.45;;
20988;SDS011;10653;47.052;15.410;2023-02-01T03:02:36;17.33;;;10.82;;
20988;SDS011;10653;47.052;15.410;2023-02-01T03:05:21;15.27;;;10.48;;
20988;SDS011;10653;47.052;15.410;2023-02-01T03:12:49;14.38;;;10.45;;
20988;SDS011;10653;47.052;15.410;2023-02-01T03:15:26;13.80;;;9.63;;
20988;SDS011;10653;47.052;15.410;2023-02-01T03:17:52;12.07;;;8.98;;
20988;SDS011;10653;47.052;15.410;2023-02-01T03:20:20;14.25;;;10.18;;
20988;SDS011;10653;47.052;15.410;2023-02-01T03:22:47;13.90;;;10.68;;
20988;SDS011;10653;47.052;15.410;2023-02-01T03:25:15;12.60;;;10.00;;
20988;SDS011;10653;47.052;15.410;2023-02-01T03:27:47;15.90;;;9.23;;
20988;SDS011;10653;47.052;15.410;2023-02-01T03:32:43;13.93;;;9.70;;
20988;SDS011;10653;47.052;15.410;2023-02-01T03:35:41;11.93;;;8.77;;
20988;SDS011;10653;47.052;15.410;2023-02-01T03:38:21;15.52;;;9.30;;
20988;SDS011;10653;47.052;15.410;2023-02-01T03:41:24;10.63;;;9.10;;
20988;SDS011;10653;47.052;15.410;2023-02-01T03:43:57;11.30;;;8.68;;
20988;SDS011;10653;47.052;15.410;2023-02-01T03:47:09;11.70;;;8.27;;
20988;SDS011;10653;47.052;15.410;2023-02-01T03:49:48;9.45;;;7.65;;
20988;SDS011;10653;47.052;15.410;2023-02-01T03:52:10;10.38;;;7.93;;
20988;SDS011;10653;47.052;15.410;2023-02-01T03:54:37;10.80;;;8.18;;
20988;SDS011;10653;47.052;15.410;2023-02-01T03:57:05;12.05;;;8.02;;
20988;SDS011;10653;47.052;15.410;2023-02-01T03:59:33;11.10;;;7.93;;
20988;SDS011;10653;47.052;15.410;2023-02-01T04:01:59;12.85;;;7.75;;
20988;SDS011;10653;47.052;15.410;2023-02-01T04:04:25;10.40;;;8.45;;
20988;SDS011;10653;47.052;15.410;2023-02-01T04:06:51;9.90;;;7.60;;
20988;SDS011;10653;47.052;15.410;2023-02-01T04:09:17;11.70;;;7.72;;
20988;SDS011;10653;47.052;15.410;2023-02-01T04:11:43;12.27;;;8.05;;
20988;SDS011;10653;47.052;15.410;2023-02-01T04:14:09;9.35;;;7.38;;
20988;SDS011;10653;47.052;15.410;2023-02-01T04:16:35;13.43;;;7.97;;
20988;SDS011;10653;47.052;15.410;2023-02-01T04:19:01;9.13;;;7.35;;
20988;SDS011;10653;47.052;15.410;2023-02-01T04:21:27;11.65;;;8.50;;
20988;SDS011;10653;47.052;15.410;2023-02-01T04:23:54;11.23;;;8.73;;
20988;SDS011;10653;47.052;15.410;2023-02-01T04:26:20;14.45;;;8.90;;
20988;SDS011;10653;47.052;15.410;2023-02-01T04:28:46;11.02;;;7.40;;
20988;SDS011;10653;47.052;15.410;2023-02-01T04:31:15;10.98;;;8.20;;
20988;SDS011;10653;47.052;15.410;2023-02-01T04:33:41;14.68;;;8.73;;
20988;SDS011;10653;47.052;15.410;2023-02-01T04:36:07;12.30;;;9.15;;
20988;SDS011;10653;47.052;15.410;2023-02-01T04:38:33;13.00;;;9.50;;
20988;SDS011;10653;47.052;15.410;2023-02-01T04:40:59;11.80;;;9.30;;
20988;SDS011;10653;47.052;15.410;2023-02-01T04:43:25;13.13;;;8.90;;
20988;SDS011;10653;47.052;15.410;2023-02-01T04:45:52;9.55;;;7.45;;
20988;SDS011;10653;47.052;15.410;2023-02-01T04:48:19;11.68;;;9.25;;
20988;SDS011;10653;47.052;15.410;2023-02-01T04:50:45;12.65;;;8.63;;
20988;SDS011;10653;47.052;15.410;2023-02-01T04:53:13;13.82;;;8.73;;
20988;SDS011;10653;47.052;15.410;2023-02-01T04:55:39;10.43;;;8.73;;
20988;SDS011;10653;47.052;15.410;2023-02-01T04:58:05;10.75;;;8.73;;
20988;SDS011;10653;47.052;15.410;2023-02-01T05:00:31;14.05;;;8.25;;
20988;SDS011;10653;47.052;15.410;2023-02-01T05:02:57;12.73;;;7.60;;
20988;SDS011;10653;47.052;15.410;2023-02-01T05:05:24;11.68;;;8.55;;
20988;SDS011;10653;47.052;15.410;2023-02-01T05:07:50;15.10;;;9.05;;
20988;SDS011;10653;47.052;15.410;2023-02-01T05:10:16;9.40;;;8.00;;
20988;SDS011;10653;47.052;15.410;2023-02-01T05:12:43;10.73;;;8.90;;
20988;SDS011;10653;47.052;15.410;2023-02-01T05:15:28;14.23;;;9.18;;
20988;SDS011;10653;47.052;15.410;2023-02-01T05:17:54;14.20;;;9.10;;
20988;SDS011;10653;47.052;15.410;2023-02-01T05:20:20;15.68;;;9.77;;
20988;SDS011;10653;47.052;15.410;2023-02-01T05:22:46;13.13;;;8.98;;
20988;SDS011;10653;47.052;15.410;2023-02-01T05:25:12;10.32;;;7.80;;
20988;SDS011;10653;47.052;15.410;2023-02-01T05:27:39;11.40;;;7.68;;
20988;SDS011;10653;47.052;15.410;2023-02-01T05:30:05;10.50;;;9.18;;
20988;SDS011;10653;47.052;15.410;2023-02-01T05:32:31;10.18;;;8.27;;
20988;SDS011;10653;47.052;15.410;2023-02-01T05:34:57;11.63;;;8.43;;
20988;SDS011;10653;47.052;15.410;2023-02-01T05:37:23;12.43;;;9.10;;
20988;SDS011;10653;47.052;15.410;2023-02-01T05:39:49;13.32;;;8.63;;
20988;SDS011;10653;47.052;15.410;2023-02-01T05:42:15;12.57;;;9.23;;
20988;SDS011;10653;47.052;15.410;2023-02-01T05:44:41;12.07;;;9.40;;
20988;SDS011;10653;47.052;15.410;2023-02-01T05:47:07;11.63;;;8.50;;
20988;SDS011;10653;47.052;15.410;2023-02-01T05:49:34;15.13;;;9.48;;
20988;SDS011;10653;47.052;15.410;2023-02-01T05:52:00;11.85;;;9.13;;
20988;SDS011;10653;47.052;15.410;2023-02-01T05:54:26;13.27;;;9.38;;
20988;SDS011;10653;47.052;15.410;2023-02-01T05:56:52;12.57;;;8.27;;
20988;SDS011;10653;47.052;15.410;2023-02-01T05:59:18;9.95;;;8.90;;
20988;SDS011;10653;47.052;15.410;2023-02-01T06:01:44;12.70;;;8.88;;
20988;SDS011;10653;47.052;15.410;2023-02-01T06:04:10;12.65;;;7.80;;
20988;SDS011;10653;47.052;15.410;2023-02-01T06:06:36;15.85;;;9.52;;
20988;SDS011;10653;47.052;15.410;2023-02-01T06:09:02;11.85;;;9.82;;
20988;SDS011;10653;47.052;15.410;2023-02-01T06:11:29;11.88;;;9.65;;
20988;SDS011;10653;47.052;15.410;2023-02-01T06:13:55;13.55;;;9.52;;
20988;SDS011;10653;47.052;15.410;2023-02-01T06:16:21;11.75;;;8.57;;
20988;SDS011;10653;47.052;15.410;2023-02-01T06:18:48;12.90;;;9.50;;
20988;SDS011;10653;47.052;15.410;2023-02-01T06:21:14;12.70;;;9.50;;
20988;SDS011;10653;47.052;15.410;2023-02-01T06:23:48;10.52;;;8.93;;
20988;SDS011;10653;47.052;15.410;2023-02-01T06:26:14;10.20;;;7.80;;
20988;SDS011;10653;47.052;15.410;2023-02-01T06:28:42;12.60;;;8.85;;
20988;SDS011;10653;47.052;15.410;2023-02-01T06:31:08;14.88;;;10.35;;
20988;SDS011;10653;47.052;15.410;2023-02-01T06:33:34;9.73;;;8.70;;
20988;SDS011;10653;47.052;15.410;2023-02-01T06:36:02;13.52;;;9.70;;
20988;SDS011;10653;47.052;15.410;2023-02-01T06:38:29;13.55;;;8.73;;
20988;SDS011;10653;47.052;15.410;2023-02-01T06:40:56;12.10;;;8.52;;
20988;SDS011;10653;47.052;15.410;2023-02-01T06:43:23;15.45;;;9.57;;
20988;SDS011;10653;47.052;15.410;2023-02-01T06:45:49;16.02;;;9.48;;
20988;SDS011;10653;47.052;15.410;2023-02-01T06:48:15;13.30;;;9.10;;
20988;SDS011;10653;47.052;15.410;2023-02-01T06:50:41;11.10;;;8.73;;
20988;SDS011;10653;47.052;15.410;2023-02-01T06:53:07;11.95;;;9.10;;
20988;SDS011;10653;47.052;15.410;2023-02-01T06:55:33;12.32;;;9.68;;
20988;SDS011;10653;47.052;15.410;2023-02-01T06:57:59;14.25;;;11.07;;
20988;SDS011;10653;47.052;15.410;2023-02-01T07:00:27;18.33;;;11.98;;
20988;SDS011;10653;47.052;15.410;2023-02-01T07:02:53;15.57;;;10.43;;
20988;SDS011;10653;47.052;15.410;2023-02-01T07:05:19;14.38;;;10.20;;
20988;SDS011;10653;47.052;15.410;2023-02-01T07:07:45;11.20;;;9.35;;
20988;SDS011;10653;47.052;15.410;2023-02-01T07:10:11;14.25;;;10.82;;
20988;SDS011;10653;47.052;15.410;2023-02-01T07:12:37;14.18;;;12.35;;
20988;SDS011;10653;47.052;15.410;2023-02-01T07:15:04;17.45;;;13.48;;
20988;SDS011;10653;47.052;15.410;2023-02-01T07:17:30;19.75;;;15.50;;
20988;SDS011;10653;47.052;15.410;2023-02-01T07:19:56;16.20;;;12.15;;
20988;SDS011;10653;47.052;15.410;2023-02-01T07:22:24;15.07;;;11.38;;
20988;SDS011;10653;47.052;15.410;2023-02-01T07:24:50;14.63;;;11.55;;
20988;SDS011;10653;47.052;15.410;2023-02-01T07:27:16;18.88;;;12.38;;
20988;SDS011;10653;47.052;15.410;2023-02-01T07:29:42;15.27;;;12.23;;
20988;SDS011;10653;47.052;15.410;2023-02-01T07:32:08;15.40;;;13.73;;
20988;SDS011;10653;47.052;15.410;2023-02-01T07:34:34;19.20;;;15.95;;
20988;SDS011;10653;47.052;15.410;2023-02-01T07:37:00;20.73;;;16.42;;
20988;SDS011;10653;47.052;15.410;2023-02-01T07:39:27;20.95;;;15.38;;
20988;SDS011;10653;47.052;15.410;2023-02-01T07:41:56;16.90;;;14.27;;
20988;SDS011;10653;47.052;15.410;2023-02-01T07:44:22;13.63;;;11.35;;
20988;SDS011;10653;47.052;15.410;2023-02-01T07:46:49;11.32;;;10.07;;
20988;SDS011;10653;47.052;15.410;2023-02-01T07:49:15;16.33;;;11.55;;
20988;SDS011;10653;47.052;15.410;2023-02-01T07:51:42;12.35;;;9.32;;
20988;SDS011;10653;47.052;15.410;2023-02-01T07:54:08;14.18;;;9.77;;
20988;SDS011;10653;47.052;15.410;2023-02-01T07:56:34;14.40;;;8.70;;
20988;SDS011;10653;47.052;15.410;2023-02-01T07:59:00;12.85;;;8.13;;
20988;SDS011;10653;47.052;15.410;2023-02-01T08:01:27;10.73;;;8.13;;
20988;SDS011;10653;47.052;15.410;2023-02-01T08:03:55;14.30;;;10.88;;
20988;SDS011;10653;47.052;15.410;2023-02-01T08:06:21;13.02;;;10.52;;
20988;SDS011;10653;47.052;15.410;2023-02-01T08:08:48;14.88;;;10.35;;
20988;SDS011;10653;47.052;15.410;2023-02-01T08:11:15;14.63;;;10.90;;
20988;SDS011;10653;47.052;15.410;2023-02-01T08:13:42;16.95;;;9.68;;
20988;SDS011;10653;47.052;15.410;2023-02-01T08:16:08;17.20;;;10.38;;
20988;SDS011;10653;47.052;15.410;2023-02-01T08:18:35;15.13;;;11.48;;
20988;SDS011;10653;47.052;15.410;2023-02-01T08:21:04;19.02;;;10.93;;
20988;SDS011;10653;47.052;15.410;2023-02-01T08:23:32;15.88;;;13.20;;
20988;SDS011;10653;47.052;15.410;2023-02-01T08:28:57;16.05;;;8.93;;
20988;SDS011;10653;47.052;15.410;2023-02-01T08:31:25;14.30;;;8.50;;
20988;SDS011;10653;47.052;15.410;2023-02-01T08:33:52;10.90;;;8.75;;
20988;SDS011;10653;47.052;15.410;2023-02-01T08:36:19;13.43;;;8.98;;
20988;SDS011;10653;47.052;15.410;2023-02-01T08:38:45;14.23;;;9.07;;
20988;SDS011;10653;47.052;15.410;2023-02-01T08:41:12;10.60;;;7.72;;
20988;SDS011;10653;47.052;15.410;2023-02-01T08:43:39;9.70;;;6.38;;
20988;SDS011;10653;47.052;15.410;2023-02-01T08:46:05;9.15;;;7.05;;
20988;SDS011;10653;47.052;15.410;2023-02-01T08:48:31;11.70;;;6.38;;
20988;SDS011;10653;47.052;15.410;2023-02-01T08:51:00;7.72;;;4.93;;
20988;SDS011;10653;47.052;15.410;2023-02-01T08:53:27;6.65;;;4.50;;
20988;SDS011;10653;47.052;15.410;2023-02-01T08:55:53;8.27;;;5.43;;
20988;SDS011;10653;47.052;15.410;2023-02-01T08:58:19;12.82;;;5.43;;
20988;SDS011;10653;47.052;15.410;2023-02-01T09:00:46;6.45;;;4.43;;
20988;SDS011;10653;47.052;15.410;2023-02-01T09:03:13;6.63;;;4.00;;
20988;SDS011;10653;47.052;15.410;2023-02-01T09:05:39;8.93;;;4.95;;
20988;SDS011;10653;47.052;15.410;2023-02-01T09:08:05;7.35;;;5.20;;
20988;SDS011;10653;47.052;15.410;2023-02-01T09:10:32;9.65;;;5.13;;
20988;SDS011;10653;47.052;15.410;2023-02-01T09:12:58;9.48;;;6.45;;
20988;SDS011;10653;47.052;15.410;2023-02-01T09:15:24;12.30;;;7.63;;
20988;SDS011;10653;47.052;15.410;2023-02-01T09:17:50;10.55;;;5.97;;
20988;SDS011;10653;47.052;15.410;2023-02-01T09:20:16;10.50;;;6.05;;
20988;SDS011;10653;47.052;15.410;2023-02-01T09:22:43;10.43;;;5.85;;
20988;SDS011;10653;47.052;15.410;2023-02-01T09:25:10;4.85;;;4.35;;
20988;SDS011;10653;47.052;15.410;2023-02-01T09:27:36;10.05;;;5.07;;
20988;SDS011;10653;47.052;15.410;2023-02-01T09:30:03;5.65;;;3.92;;
20988;SDS011;10653;47.052;15.410;2023-02-01T09:32:29;4.78;;;4.25;;
20988;SDS011;10653;47.052;15.410;2023-02-01T09:34:55;10.70;;;5.90;;
20988;SDS011;10653;47.052;15.410;2023-02-01T09:37:21;8.43;;;5.60;;
20988;SDS011;10653;47.052;15.410;2023-02-01T09:39:47;9.98;;;5.60;;
20988;SDS011;10653;47.052;15.410;2023-02-01T09:47:24;12.13;;;6.10;;
20988;SDS011;10653;47.052;15.410;2023-02-01T09:52:31;12.63;;;5.50;;
20988;SDS011;10653;47.052;15.410;2023-02-01T09:55:04;9.70;;;5.37;;
20988;SDS011;10653;47.052;15.410;2023-02-01T10:00:05;10.70;;;6.30;;
20988;SDS011;10653;47.052;15.410;2023-02-01T10:02:33;10.23;;;5.27;;
20988;SDS011;10653;47.052;15.410;2023-02-01T10:05:02;11.00;;;5.57;;
20988;SDS011;10653;47.052;15.410;2023-02-01T10:07:50;11.47;;;7.90;;
20988;SDS011;10653;47.052;15.410;2023-02-01T10:10:28;17.17;;;9.07;;
20988;SDS011;10653;47.052;15.410;2023-02-01T10:20:57;16.93;;;9.13;;
20988;SDS011;10653;47.052;15.410;2023-02-01T10:23:33;14.97;;;9.50;;
20988;SDS011;10653;47.052;15.410;2023-02-01T10:26:12;12.77;;;8.30;;
20988;SDS011;10653;47.052;15.410;2023-02-01T10:28:43;16.87;;;7.60;;
20988;SDS011;10653;47.052;15.410;2023-02-01T10:31:10;9.70;;;5.20;;
20988;SDS011;10653;47.052;15.410;2023-02-01T10:33:39;10.00;;;5.33;;
20988;SDS011;10653;47.052;15.410;2023-02-01T10:36:17;10.10;;;5.17;;
20988;SDS011;10653;47.052;15.410;2023-02-01T10:38:45;9.80;;;5.40;;
20988;SDS011;10653;47.052;15.410;2023-02-01T10:41:13;9.17;;;4.80;;
20988;SDS011;10653;47.052;15.410;2023-02-01T10:43:41;8.10;;;4.70;;
20988;SDS011;10653;47.052;15.410;2023-02-01T10:46:07;5.50;;;4.10;;
20988;SDS011;10653;47.052;15.410;2023-02-01T10:48:33;9.07;;;4.17;;
20988;SDS011;10653;47.052;15.410;2023-02-01T10:51:07;6.83;;;4.70;;
20988;SDS011;10653;47.052;15.410;2023-02-01T10:53:45;6.37;;;3.70;;
20988;SDS011;10653;47.052;15.410;2023-02-01T10:56:13;4.63;;;3.20;;
20988;SDS011;10653;47.052;15.410;2023-02-01T10:58:44;7.97;;;3.93;;
20988;SDS011;10653;47.052;15.410;2023-02-01T11:01:15;13.67;;;5.63;;
20988;SDS011;10653;47.052;15.410;2023-02-01T11:03:42;7.93;;;3.90;;
20988;SDS011;10653;47.052;15.410;2023-02-01T11:06:11;7.80;;;4.23;;
20988;SDS011;10653;47.052;15.410;2023-02-01T11:08:49;7.80;;;4.13;;
20988;SDS011;10653;47.052;15.410;2023-02-01T11:11:15;7.17;;;4.77;;
20988;SDS011;10653;47.052;15.410;2023-02-01T11:13:41;7.27;;;4.27;;
20988;SDS011;10653;47.052;15.410;2023-02-01T11:16:11;7.07;;;4.10;;
20988;SDS011;10653;47.052;15.410;2023-02-01T11:18:38;9.33;;;4.47;;
20988;SDS011;10653;47.052;15.410;2023-02-01T11:21:05;10.40;;;3.27;;
20988;SDS011;10653;47.052;15.410;2023-02-01T11:23:32;5.80;;;2.80;;
20988;SDS011;10653;47.052;15.410;2023-02-01T11:25:59;5.73;;;3.27;;
20988;SDS011;10653;47.052;15.410;2023-02-01T11:28:27;5.40;;;3.20;;
20988;SDS011;10653;47.052;15.410;2023-02-01T11:30:56;5.97;;;4.00;;
20988;SDS011;10653;47.052;15.410;2023-02-01T11:33:24;7.50;;;3.80;;
20988;SDS011;10653;47.052;15.410;2023-02-01T11:35:54;6.17;;;4.53;;
20988;SDS011;10653;47.052;15.410;2023-02-01T11:40:47;5.07;;;3.40;;
20988;SDS011;10653;47.052;15.410;2023-02-01T11:43:15;9.90;;;4.60;;
20988;SDS011;10653;47.052;15.410;2023-02-01T11:45:46;4.13;;;3.50;;
20988;SDS011;10653;47.052;15.410;2023-02-01T11:48:18;5.90;;;3.73;;
20988;SDS011;10653;47.052;15.410;2023-02-01T12:03:45;0.80;;;0.30;;
20988;SDS011;10653;47.052;15.410;2023-02-01T12:11:20;1.63;;;0.37;;
20988;SDS011;10653;47.052;15.410;2023-02-01T12:27:08;0.90;;;0.47;;
20988;SDS011;10653;47.052;15.410;2023-02-01T12:29:48;0.50;;;0.30;;
20988;SDS011;10653;47.052;15.410;2023-02-01T12:37:16;0.50;;;0.40;;
20988;SDS011;10653;47.052;15.410;2023-02-01T12:39:51;2.83;;;0.37;;
20988;SDS011;10653;47.052;15.410;2023-02-01T12:42:29;0.50;;;0.30;;
20988;SDS011;10653;47.052;15.410;2023-02-01T12:45:02;1.30;;;0.60;;
20988;SDS011;10653;47.052;15.410;2023-02-01T12:47:35;0.40;;;0.30;;
20988;SDS011;10653;47.052;15.410;2023-02-01T12:50:18;0.50;;;0.37;;
20988;SDS011;10653;47.052;15.410;2023-02-01T12:52:53;0.70;;;0.53;;
20988;SDS011;10653;47.052;15.410;2023-02-01T12:57:49;0.80;;;0.40;;
20988;SDS011;10653;47.052;15.410;2023-02-01T13:00:18;2.07;;;0.33;;
20988;SDS011;10653;47.052;15.410;2023-02-01T13:03:00;0.40;;;0.30;;
20988;SDS011;10653;47.052;15.410;2023-02-01T13:05:31;0.57;;;0.30;;
20988;SDS011;10653;47.052;15.410;2023-02-01T13:08:02;1.43;;;0.40;;
20988;SDS011;10653;47.052;15.410;2023-02-01T13:10:45;0.50;;;0.40;;
20988;SDS011;10653;47.052;15.410;2023-02-01T13:18:37;0.40;;;0.23;;
20988;SDS011;10653;47.052;15.410;2023-02-01T13:21:08;0.60;;;0.30;;
20988;SDS011;10653;47.052;15.410;2023-02-01T13:23:37;0.60;;;0.30;;
20988;SDS011;10653;47.052;15.410;2023-02-01T13:26:03;0.80;;;0.40;;
20988;SDS011;10653;47.052;15.410;2023-02-01T13:44:30;1.00;;;0.50;;
20988;SDS011;10653;47.052;15.410;2023-02-01T13:46:59;1.20;;;0.37;;
20988;SDS011;10653;47.052;15.410;2023-02-01T13:49:27;1.13;;;0.53;;
20988;SDS011;10653;47.052;15.410;2023-02-01T13:51:55;1.23;;;0.30;;
20988;SDS011;10653;47.052;15.410;2023-02-01T13:54:25;1.23;;;0.50;;
20988;SDS011;10653;47.052;15.410;2023-02-01T13:56:51;2.03;;;0.40;;
20988;SDS011;10653;47.052;15.410;2023-02-01T14:04:50;0.97;;;0.43;;
20988;SDS011;10653;47.052;15.410;2023-02-01T14:07:20;0.70;;;0.40;;
20988;SDS011;10653;47.052;15.410;2023-02-01T14:09:47;0.63;;;0.40;;
20988;SDS011;10653;47.052;15.410;2023-02-01T14:15:43;4.03;;;0.40;;
20988;SDS011;10653;47.052;15.410;2023-02-01T14:17:46;1.03;;;0.50;;
20988;SDS011;10653;47.052;15.410;2023-02-01T14:23:00;1.60;;;0.80;;
20988;SDS011;10653;47.052;15.410;2023-02-01T14:25:31;0.70;;;0.40;;
20988;SDS011;10653;47.052;15.410;2023-02-01T14:27:58;0.60;;;0.40;;
20988;SDS011;10653;47.052;15.410;2023-02-01T14:30:24;0.97;;;0.60;;
20988;SDS011;10653;47.052;15.410;2023-02-01T14:32:50;0.73;;;0.47;;
20988;SDS011;10653;47.052;15.410;2023-02-01T14:35:34;0.77;;;0.60;;
20988;SDS011;10653;47.052;15.410;2023-02-01T14:38:01;0.40;;;0.30;;
20988;SDS011;10653;47.052;15.410;2023-02-01T14:40:29;0.93;;;0.40;;
20988;SDS011;10653;47.052;15.410;2023-02-01T14:42:55;1.77;;;0.70;;
20988;SDS011;10653;47.052;15.410;2023-02-01T14:47:48;0.60;;;0.50;;
20988;SDS011;10653;47.052;15.410;2023-02-01T14:52:51;0.50;;;0.30;;
20988;SDS011;10653;47.052;15.410;2023-02-01T14:55:25;0.80;;;0.57;;
20988;SDS011;10653;47.052;15.410;2023-02-01T14:57:52;6.27;;;0.60;;
20988;SDS011;10653;47.052;15.410;2023-02-01T15:00:26;0.40;;;0.40;;
20988;SDS011;10653;47.052;15.410;2023-02-01T15:02:53;1.10;;;0.67;;
20988;SDS011;10653;47.052;15.410;2023-02-01T15:05:22;4.10;;;0.73;;
20988;SDS011;10653;47.052;15.410;2023-02-01T15:07:49;0.93;;;0.53;;
20988;SDS011;10653;47.052;15.410;2023-02-01T15:10:16;1.00;;;0.50;;
20988;SDS011;10653;47.052;15.410;2023-02-01T15:12:45;0.60;;;0.40;;
20988;SDS011;10653;47.052;15.410;2023-02-01T15:15:18;1.03;;;0.60;;
20988;SDS011;10653;47.052;15.410;2023-02-01T15:17:57;0.97;;;0.50;;
20988;SDS011;10653;47.052;15.410;2023-02-01T15:20:26;0.80;;;0.60;;
20988;SDS011;10653;47.052;15.410;2023-02-01T15:22:59;1.27;;;0.40;;
20988;SDS011;10653;47.052;15.410;2023-02-01T15:25:27;1.27;;;0.60;;
20988;SDS011;10653;47.052;15.410;2023-02-01T15:27:53;1.10;;;0.57;;
20988;SDS011;10653;47.052;15.410;2023-02-01T15:30:26;0.60;;;0.40;;
20988;SDS011;10653;47.052;15.410;2023-02-01T15:33:03;0.70;;;0.60;;
20988;SDS011;10653;47.052;15.410;2023-02-01T15:35:51;0.90;;;0.47;;
20988;SDS011;10653;47.052;15.410;2023-02-01T15:43:23;0.73;;;0.50;;
20988;SDS011;10653;47.052;15.410;2023-02-01T15:45:50;0.50;;;0.47;;
20988;SDS011;10653;47.052;15.410;2023-02-01T15:48:20;1.70;;;1.03;;
20988;SDS011;10653;47.052;15.410;2023-02-01T15:50:47;0.50;;;0.30;;
20988;SDS011;10653;47.052;15.410;2023-02-01T15:53:17;0.93;;;0.60;;
20988;SDS011;10653;47.052;15.410;2023-02-01T15:55:43;1.97;;;0.70;;
20988;SDS011;10653;47.052;15.410;2023-02-01T15:58:17;0.87;;;0.50;;
20988;SDS011;10653;47.052;15.410;2023-02-01T16:00:45;0.80;;;0.50;;
20988;SDS011;10653;47.052;15.410;2023-02-01T16:03:26;5.40;;;0.60;;
20988;SDS011;10653;47.052;15.410;2023-02-01T16:05:59;1.10;;;0.30;;
20988;SDS011;10653;47.052;15.410;2023-02-01T16:08:26;1.57;;;0.70;;
20988;SDS011;10653;47.052;15.410;2023-02-01T16:10:54;0.90;;;0.60;;
20988;SDS011;10653;47.052;15.410;2023-02-01T16:13:20;0.73;;;0.40;;
20988;SDS011;10653;47.052;15.410;2023-02-01T16:15:47;0.90;;;0.40;;
20988;SDS011;10653;47.052;15.410;2023-02-01T16:18:13;0.60;;;0.40;;
20988;SDS011;10653;47.052;15.410;2023-02-01T16:20:40;1.37;;;0.60;;
20988;SDS011;10653;47.052;15.410;2023-02-01T16:23:07;1.27;;;0.73;;
20988;SDS011;10653;47.052;15.410;2023-02-01T16:25:34;1.07;;;0.50;;
20988;SDS011;10653;47.052;15.410;2023-02-01T16:28:01;1.13;;;0.70;;
20988;SDS011;10653;47.052;15.410;2023-02-01T16:30:27;1.53;;;0.47;;
20988;SDS011;10653;47.052;15.410;2023-02-01T16:37:49;0.90;;;0.60;;
20988;SDS011;10653;47.052;15.410;2023-02-01T16:40:15;0.67;;;0.47;;
20988;SDS011;10653;47.052;15.410;2023-02-01T16:42:42;1.37;;;1.13;;
20988;SDS011;10653;47.052;15.410;2023-02-01T16:45:08;1.00;;;0.70;;
20988;SDS011;10653;47.052;15.410;2023-02-01T16:47:36;4.93;;;0.70;;
20988;SDS011;10653;47.052;15.410;2023-02-01T16:50:03;1.37;;;0.70;;
20988;SDS011;10653;47.052;15.410;2023-02-01T16:52:30;1.10;;;0.63;;
20988;SDS011;10653;47.052;15.410;2023-02-01T16:54:56;0.50;;;0.50;;
20988;SDS011;10653;47.052;15.410;2023-02-01T16:57:22;1.70;;;0.70;;